sensor_id;sensor_type;location;lat;lon;timestamp;P1;durP1;ratioP1;P2;durP2;ratioP2
45206;SDS011;30950;53.086;21.576;2023-07-13T00:02:00;27.08;;;24.17;;
45206;SDS011;30950;53.086;21.576;2023-07-13T00:04:28;28.30;;;25.50;;
45206;SDS011;30950;53.086;21.576;2023-07-13T00:06:59;28.42;;;25.60;;
45206;SDS011;30950;53.086;21.576;2023-07-13T00:09:27;29.75;;;26.95;;
45206;SDS011;30950;53.086;21.576;2023-07-13T00:11:55;39.92;;;36.05;;
45206;SDS011;30950;53.086;21.576;2023-07-13T00:14:24;27.95;;;25.15;;
45206;SDS011;30950;53.086;21.576;2023-07-13T00:16:53;26.80;;;24.15;;
45206;SDS011;30950;53.086;21.576;2023-07-13T00:19:21;25.60;;;23.02;;
45206;SDS011;30950;53.086;21.576;2023-07-13T00:21:48;24.55;;;22.15;;
45206;SDS011;30950;53.086;21.576;2023-07-13T00:24:16;26.33;;;23.83;;
45206;SDS011;30950;53.086;21.576;2023-07-13T00:26:50;24.23;;;21.95;;
45206;SDS011;30950;53.086;21.576;2023-07-13T00:29:18;24.17;;;21.83;;
45206;SDS011;30950;53.086;21.576;2023-07-13T00:31:48;22.90;;;19.20;;
45206;SDS011;30950;53.086;21.576;2023-07-13T00:34:16;24.13;;;21.92;;
45206;SDS011;30950;53.086;21.576;2023-07-13T00:36:43;24.20;;;21.90;;
45206;SDS011;30950;53.086;21.576;2023-07-13T00:39:10;23.85;;;21.55;;
45206;SDS011;30950;53.086;21.576;2023-07-13T00:41:38;24.25;;;21.83;;
45206;SDS011;30950;53.086;21.576;2023-07-13T00:44:08;23.70;;;21.45;;
45206;SDS011;30950;53.086;21.576;2023-07-13T00:46:40;24.60;;;22.13;;
45206;SDS011;30950;53.086;21.576;2023-07-13T00:49:09;24.33;;;21.92;;
45206;SDS011;30950;53.086;21.576;2023-07-13T00:51:51;24.83;;;22.35;;
45206;SDS011;30950;53.086;21.576;2023-07-13T00:54:34;24.65;;;22.25;;
45206;SDS011;30950;53.086;21.576;2023-07-13T00:57:06;24.10;;;21.60;;
45206;SDS011;30950;53.086;21.576;2023-07-13T00:59:39;21.30;;;19.10;;
45206;SDS011;30950;53.086;21.576;2023-07-13T01:02:11;21.92;;;19.88;;
45206;SDS011;30950;53.086;21.576;2023-07-13T01:04:39;21.52;;;19.42;;
45206;SDS011;30950;53.086;21.576;2023-07-13T01:07:10;20.48;;;18.48;;
45206;SDS011;30950;53.086;21.576;2023-07-13T01:09:39;21.10;;;19.08;;
45206;SDS011;30950;53.086;21.576;2023-07-13T01:12:06;19.52;;;17.60;;
45206;SDS011;30950;53.086;21.576;2023-07-13T01:14:34;20.50;;;18.58;;
45206;SDS011;30950;53.086;21.576;2023-07-13T01:17:02;21.85;;;19.75;;
45206;SDS011;30950;53.086;21.576;2023-07-13T01:19:41;21.50;;;19.38;;
45206;SDS011;30950;53.086;21.576;2023-07-13T01:22:14;22.05;;;19.83;;
45206;SDS011;30950;53.086;21.576;2023-07-13T01:24:44;22.13;;;19.92;;
45206;SDS011;30950;53.086;21.576;2023-07-13T01:27:15;21.05;;;18.17;;
45206;SDS011;30950;53.086;21.576;2023-07-13T01:29:47;21.95;;;19.48;;
45206;SDS011;30950;53.086;21.576;2023-07-13T01:32:21;22.98;;;20.45;;
45206;SDS011;30950;53.086;21.576;2023-07-13T01:34:54;23.27;;;21.00;;
45206;SDS011;30950;53.086;21.576;2023-07-13T01:37:22;22.92;;;20.30;;
45206;SDS011;30950;53.086;21.576;2023-07-13T01:39:51;24.95;;;22.55;;
45206;SDS011;30950;53.086;21.576;2023-07-13T01:42:19;23.08;;;20.75;;
45206;SDS011;30950;53.086;21.576;2023-07-13T01:44:47;22.25;;;20.13;;
45206;SDS011;30950;53.086;21.576;2023-07-13T01:47:14;23.73;;;21.33;;
45206;SDS011;30950;53.086;21.576;2023-07-13T01:49:42;22.08;;;19.77;;
45206;SDS011;30950;53.086;21.576;2023-07-13T01:52:09;23.00;;;20.70;;
45206;SDS011;30950;53.086;21.576;2023-07-13T01:54:36;22.63;;;20.50;;
45206;SDS011;30950;53.086;21.576;2023-07-13T01:57:04;25.38;;;22.85;;
45206;SDS011;30950;53.086;21.576;2023-07-13T01:59:32;24.30;;;21.90;;
45206;SDS011;30950;53.086;21.576;2023-07-13T02:02:00;23.90;;;21.50;;
45206;SDS011;30950;53.086;21.576;2023-07-13T02:04:27;20.70;;;18.70;;
45206;SDS011;30950;53.086;21.576;2023-07-13T02:06:55;23.13;;;20.92;;
45206;SDS011;30950;53.086;21.576;2023-07-13T02:09:22;23.50;;;21.20;;
45206;SDS011;30950;53.086;21.576;2023-07-13T02:11:49;23.92;;;21.63;;
45206;SDS011;30950;53.086;21.576;2023-07-13T02:14:16;22.50;;;20.25;;
45206;SDS011;30950;53.086;21.576;2023-07-13T02:16:44;22.65;;;20.45;;
45206;SDS011;30950;53.086;21.576;2023-07-13T02:19:11;22.92;;;20.63;;
45206;SDS011;30950;53.086;21.576;2023-07-13T02:21:38;22.40;;;20.27;;
45206;SDS011;30950;53.086;21.576;2023-07-13T02:24:06;19.83;;;17.80;;
45206;SDS011;30950;53.086;21.576;2023-07-13T02:26:34;23.98;;;21.23;;
45206;SDS011;30950;53.086;21.576;2023-07-13T02:29:02;22.42;;;20.23;;
45206;SDS011;30950;53.086;21.576;2023-07-13T02:31:29;20.88;;;18.83;;
45206;SDS011;30950;53.086;21.576;2023-07-13T02:33:57;21.23;;;19.23;;
45206;SDS011;30950;53.086;21.576;2023-07-13T02:36:24;21.05;;;19.13;;
45206;SDS011;30950;53.086;21.576;2023-07-13T02:38:52;21.58;;;19.42;;
45206;SDS011;30950;53.086;21.576;2023-07-13T02:41:19;21.63;;;19.45;;
45206;SDS011;30950;53.086;21.576;2023-07-13T02:43:47;20.85;;;18.83;;
45206;SDS011;30950;53.086;21.576;2023-07-13T02:46:14;22.58;;;20.38;;
45206;SDS011;30950;53.086;21.576;2023-07-13T02:48:41;21.38;;;19.42;;
45206;SDS011;30950;53.086;21.576;2023-07-13T02:51:08;20.95;;;18.98;;
45206;SDS011;30950;53.086;21.576;2023-07-13T02:53:36;24.17;;;21.67;;
45206;SDS011;30950;53.086;21.576;2023-07-13T02:56:04;22.63;;;20.45;;
45206;SDS011;30950;53.086;21.576;2023-07-13T02:58:32;24.38;;;22.10;;
45206;SDS011;30950;53.086;21.576;2023-07-13T03:00:59;20.67;;;18.70;;
45206;SDS011;30950;53.086;21.576;2023-07-13T03:03:37;22.08;;;19.88;;
45206;SDS011;30950;53.086;21.576;2023-07-13T03:06:06;22.13;;;19.60;;
45206;SDS011;30950;53.086;21.576;2023-07-13T03:08:44;22.38;;;20.27;;
45206;SDS011;30950;53.086;21.576;2023-07-13T03:11:13;23.48;;;21.08;;
45206;SDS011;30950;53.086;21.576;2023-07-13T03:13:43;23.83;;;21.65;;
45206;SDS011;30950;53.086;21.576;2023-07-13T03:16:11;24.48;;;21.90;;
45206;SDS011;30950;53.086;21.576;2023-07-13T03:18:47;23.00;;;20.88;;
45206;SDS011;30950;53.086;21.576;2023-07-13T03:21:15;21.90;;;19.90;;
45206;SDS011;30950;53.086;21.576;2023-07-13T03:23:43;22.02;;;19.90;;
45206;SDS011;30950;53.086;21.576;2023-07-13T03:26:12;22.02;;;19.73;;
45206;SDS011;30950;53.086;21.576;2023-07-13T03:28:42;23.20;;;20.98;;
45206;SDS011;30950;53.086;21.576;2023-07-13T03:31:16;22.60;;;20.50;;
45206;SDS011;30950;53.086;21.576;2023-07-13T03:33:45;22.63;;;20.50;;
45206;SDS011;30950;53.086;21.576;2023-07-13T03:36:17;22.80;;;20.52;;
45206;SDS011;30950;53.086;21.576;2023-07-13T03:38:48;22.52;;;20.35;;
45206;SDS011;30950;53.086;21.576;2023-07-13T03:41:18;23.35;;;20.95;;
45206;SDS011;30950;53.086;21.576;2023-07-13T03:43:48;22.23;;;20.02;;
45206;SDS011;30950;53.086;21.576;2023-07-13T03:46:18;24.70;;;22.25;;
45206;SDS011;30950;53.086;21.576;2023-07-13T03:48:46;20.50;;;18.50;;
45206;SDS011;30950;53.086;21.576;2023-07-13T03:51:15;22.17;;;20.13;;
45206;SDS011;30950;53.086;21.576;2023-07-13T03:53:44;22.30;;;20.05;;
45206;SDS011;30950;53.086;21.576;2023-07-13T03:56:14;21.25;;;19.25;;
45206;SDS011;30950;53.086;21.576;2023-07-13T03:58:45;22.10;;;19.90;;
45206;SDS011;30950;53.086;21.576;2023-07-13T04:01:17;22.80;;;20.60;;
45206;SDS011;30950;53.086;21.576;2023-07-13T04:03:46;22.30;;;20.20;;
45206;SDS011;30950;53.086;21.576;2023-07-13T04:06:18;22.25;;;20.05;;
45206;SDS011;30950;53.086;21.576;2023-07-13T04:08:52;21.05;;;19.15;;
45206;SDS011;30950;53.086;21.576;2023-07-13T04:11:22;22.10;;;20.00;;
45206;SDS011;30950;53.086;21.576;2023-07-13T04:13:51;23.10;;;20.88;;
45206;SDS011;30950;53.086;21.576;2023-07-13T04:16:19;21.20;;;19.27;;
45206;SDS011;30950;53.086;21.576;2023-07-13T04:18:47;20.98;;;19.02;;
45206;SDS011;30950;53.086;21.576;2023-07-13T04:21:16;23.35;;;20.98;;
45206;SDS011;30950;53.086;21.576;2023-07-13T04:23:43;21.90;;;19.88;;
45206;SDS011;30950;53.086;21.576;2023-07-13T04:26:11;21.85;;;19.60;;
45206;SDS011;30950;53.086;21.576;2023-07-13T04:28:39;24.80;;;22.50;;
45206;SDS011;30950;53.086;21.576;2023-07-13T04:31:06;24.15;;;21.85;;
45206;SDS011;30950;53.086;21.576;2023-07-13T04:33:33;26.75;;;24.15;;
45206;SDS011;30950;53.086;21.576;2023-07-13T04:36:00;22.58;;;20.40;;
45206;SDS011;30950;53.086;21.576;2023-07-13T04:38:29;24.83;;;22.42;;
45206;SDS011;30950;53.086;21.576;2023-07-13T04:40:58;28.23;;;25.40;;
45206;SDS011;30950;53.086;21.576;2023-07-13T04:43:27;22.40;;;20.30;;
45206;SDS011;30950;53.086;21.576;2023-07-13T04:45:56;22.30;;;20.10;;
45206;SDS011;30950;53.086;21.576;2023-07-13T04:48:23;22.35;;;20.10;;
45206;SDS011;30950;53.086;21.576;2023-07-13T04:50:54;21.65;;;19.55;;
45206;SDS011;30950;53.086;21.576;2023-07-13T04:53:24;21.48;;;19.38;;
45206;SDS011;30950;53.086;21.576;2023-07-13T04:55:52;24.80;;;22.40;;
45206;SDS011;30950;53.086;21.576;2023-07-13T04:58:20;26.30;;;23.80;;
45206;SDS011;30950;53.086;21.576;2023-07-13T05:00:48;33.20;;;30.10;;
45206;SDS011;30950;53.086;21.576;2023-07-13T05:03:15;25.50;;;23.23;;
45206;SDS011;30950;53.086;21.576;2023-07-13T05:05:43;25.73;;;23.42;;
45206;SDS011;30950;53.086;21.576;2023-07-13T05:08:22;25.70;;;23.30;;
45206;SDS011;30950;53.086;21.576;2023-07-13T05:10:50;25.58;;;22.98;;
45206;SDS011;30950;53.086;21.576;2023-07-13T05:13:18;29.52;;;26.73;;
45206;SDS011;30950;53.086;21.576;2023-07-13T05:15:47;24.65;;;22.42;;
45206;SDS011;30950;53.086;21.576;2023-07-13T05:18:21;21.08;;;19.08;;
45206;SDS011;30950;53.086;21.576;2023-07-13T05:20:59;22.88;;;20.63;;
45206;SDS011;30950;53.086;21.576;2023-07-13T05:23:31;20.48;;;18.67;;
45206;SDS011;30950;53.086;21.576;2023-07-13T05:26:00;20.98;;;18.92;;
45206;SDS011;30950;53.086;21.576;2023-07-13T05:28:30;17.83;;;16.10;;
45206;SDS011;30950;53.086;21.576;2023-07-13T05:30:58;20.98;;;18.50;;
45206;SDS011;30950;53.086;21.576;2023-07-13T05:33:25;18.58;;;16.77;;
45206;SDS011;30950;53.086;21.576;2023-07-13T05:35:53;19.15;;;17.15;;
45206;SDS011;30950;53.086;21.576;2023-07-13T05:38:20;16.50;;;12.77;;
45206;SDS011;30950;53.086;21.576;2023-07-13T05:40:48;17.80;;;15.38;;
45206;SDS011;30950;53.086;21.576;2023-07-13T05:43:16;19.40;;;17.35;;
45206;SDS011;30950;53.086;21.576;2023-07-13T05:45:43;19.23;;;17.17;;
45206;SDS011;30950;53.086;21.576;2023-07-13T05:48:11;19.92;;;16.20;;
45206;SDS011;30950;53.086;21.576;2023-07-13T05:50:38;26.75;;;23.88;;
45206;SDS011;30950;53.086;21.576;2023-07-13T05:53:05;28.63;;;20.48;;
45206;SDS011;30950;53.086;21.576;2023-07-13T05:55:33;16.92;;;14.65;;
45206;SDS011;30950;53.086;21.576;2023-07-13T05:58:00;17.42;;;15.57;;
45206;SDS011;30950;53.086;21.576;2023-07-13T06:00:28;15.20;;;13.45;;
45206;SDS011;30950;53.086;21.576;2023-07-13T06:02:56;16.85;;;13.45;;
45206;SDS011;30950;53.086;21.576;2023-07-13T06:05:27;15.38;;;13.90;;
45206;SDS011;30950;53.086;21.576;2023-07-13T06:07:55;14.45;;;11.93;;
45206;SDS011;30950;53.086;21.576;2023-07-13T06:10:23;12.77;;;10.82;;
45206;SDS011;30950;53.086;21.576;2023-07-13T06:12:50;14.15;;;12.65;;
45206;SDS011;30950;53.086;21.576;2023-07-13T06:15:18;14.95;;;13.35;;
45206;SDS011;30950;53.086;21.576;2023-07-13T06:17:45;12.63;;;10.65;;
45206;SDS011;30950;53.086;21.576;2023-07-13T06:20:13;11.52;;;10.27;;
45206;SDS011;30950;53.086;21.576;2023-07-13T06:22:43;11.45;;;10.18;;
45206;SDS011;30950;53.086;21.576;2023-07-13T06:25:10;11.95;;;10.50;;
45206;SDS011;30950;53.086;21.576;2023-07-13T06:27:37;11.27;;;10.27;;
45206;SDS011;30950;53.086;21.576;2023-07-13T06:30:05;14.30;;;11.15;;
45206;SDS011;30950;53.086;21.576;2023-07-13T06:32:32;11.52;;;10.43;;
45206;SDS011;30950;53.086;21.576;2023-07-13T06:35:00;12.70;;;11.40;;
45206;SDS011;30950;53.086;21.576;2023-07-13T06:37:27;13.63;;;9.32;;
45206;SDS011;30950;53.086;21.576;2023-07-13T06:39:54;10.45;;;9.35;;
45206;SDS011;30950;53.086;21.576;2023-07-13T06:42:22;11.77;;;10.57;;
45206;SDS011;30950;53.086;21.576;2023-07-13T06:44:49;11.82;;;10.65;;
45206;SDS011;30950;53.086;21.576;2023-07-13T06:47:16;9.35;;;8.35;;
45206;SDS011;30950;53.086;21.576;2023-07-13T06:49:44;11.23;;;8.68;;
45206;SDS011;30950;53.086;21.576;2023-07-13T06:52:11;9.85;;;8.82;;
45206;SDS011;30950;53.086;21.576;2023-07-13T06:54:38;12.48;;;9.27;;
45206;SDS011;30950;53.086;21.576;2023-07-13T06:57:06;11.30;;;7.50;;
45206;SDS011;30950;53.086;21.576;2023-07-13T06:59:34;9.75;;;7.68;;
45206;SDS011;30950;53.086;21.576;2023-07-13T07:02:01;10.68;;;6.50;;
45206;SDS011;30950;53.086;21.576;2023-07-13T07:04:28;7.82;;;6.97;;
45206;SDS011;30950;53.086;21.576;2023-07-13T07:06:55;8.80;;;7.15;;
45206;SDS011;30950;53.086;21.576;2023-07-13T07:09:25;8.25;;;6.22;;
45206;SDS011;30950;53.086;21.576;2023-07-13T07:11:52;11.02;;;6.95;;
45206;SDS011;30950;53.086;21.576;2023-07-13T07:14:30;8.93;;;6.35;;
45206;SDS011;30950;53.086;21.576;2023-07-13T07:16:58;7.47;;;6.22;;
45206;SDS011;30950;53.086;21.576;2023-07-13T07:19:27;6.88;;;5.95;;
45206;SDS011;30950;53.086;21.576;2023-07-13T07:21:55;7.75;;;5.47;;
45206;SDS011;30950;53.086;21.576;2023-07-13T07:24:23;8.38;;;5.38;;
45206;SDS011;30950;53.086;21.576;2023-07-13T07:26:50;7.13;;;5.22;;
45206;SDS011;30950;53.086;21.576;2023-07-13T07:29:21;5.82;;;4.43;;
45206;SDS011;30950;53.086;21.576;2023-07-13T07:31:52;5.90;;;4.70;;
45206;SDS011;30950;53.086;21.576;2023-07-13T07:34:23;7.32;;;4.95;;
45206;SDS011;30950;53.086;21.576;2023-07-13T07:36:51;5.68;;;4.38;;
45206;SDS011;30950;53.086;21.576;2023-07-13T07:39:21;6.05;;;5.18;;
45206;SDS011;30950;53.086;21.576;2023-07-13T07:41:48;6.20;;;4.70;;
45206;SDS011;30950;53.086;21.576;2023-07-13T07:44:19;7.13;;;5.40;;
45206;SDS011;30950;53.086;21.576;2023-07-13T07:46:46;6.13;;;5.50;;
45206;SDS011;30950;53.086;21.576;2023-07-13T07:49:14;8.73;;;5.15;;
45206;SDS011;30950;53.086;21.576;2023-07-13T07:51:41;6.00;;;4.50;;
45206;SDS011;30950;53.086;21.576;2023-07-13T07:54:09;7.00;;;4.53;;
45206;SDS011;30950;53.086;21.576;2023-07-13T07:56:42;5.95;;;4.47;;
45206;SDS011;30950;53.086;21.576;2023-07-13T07:59:13;5.93;;;4.45;;
45206;SDS011;30950;53.086;21.576;2023-07-13T08:01:43;4.93;;;3.72;;
45206;SDS011;30950;53.086;21.576;2023-07-13T08:04:16;5.38;;;4.40;;
45206;SDS011;30950;53.086;21.576;2023-07-13T08:06:46;7.18;;;4.47;;
45206;SDS011;30950;53.086;21.576;2023-07-13T08:09:14;6.20;;;3.75;;
45206;SDS011;30950;53.086;21.576;2023-07-13T08:11:41;5.93;;;3.63;;
45206;SDS011;30950;53.086;21.576;2023-07-13T08:14:12;4.88;;;2.85;;
45206;SDS011;30950;53.086;21.576;2023-07-13T08:16:39;4.47;;;3.15;;
45206;SDS011;30950;53.086;21.576;2023-07-13T08:19:07;4.43;;;3.20;;
45206;SDS011;30950;53.086;21.576;2023-07-13T08:21:34;3.53;;;2.47;;
45206;SDS011;30950;53.086;21.576;2023-07-13T08:24:02;3.70;;;2.63;;
45206;SDS011;30950;53.086;21.576;2023-07-13T08:26:29;5.15;;;2.70;;
45206;SDS011;30950;53.086;21.576;2023-07-13T08:28:56;3.90;;;2.67;;
45206;SDS011;30950;53.086;21.576;2023-07-13T08:31:23;5.57;;;3.10;;
45206;SDS011;30950;53.086;21.576;2023-07-13T08:33:51;6.18;;;2.75;;
45206;SDS011;30950;53.086;21.576;2023-07-13T08:36:18;5.38;;;2.92;;
45206;SDS011;30950;53.086;21.576;2023-07-13T08:38:45;5.43;;;3.30;;
45206;SDS011;30950;53.086;21.576;2023-07-13T08:41:13;6.35;;;3.20;;
45206;SDS011;30950;53.086;21.576;2023-07-13T08:43:47;4.93;;;2.95;;
45206;SDS011;30950;53.086;21.576;2023-07-13T08:46:24;5.25;;;3.00;;
45206;SDS011;30950;53.086;21.576;2023-07-13T08:49:02;3.58;;;2.55;;
45206;SDS011;30950;53.086;21.576;2023-07-13T08:51:38;4.82;;;2.38;;
45206;SDS011;30950;53.086;21.576;2023-07-13T08:54:21;5.70;;;3.08;;
45206;SDS011;30950;53.086;21.576;2023-07-13T08:56:55;4.87;;;3.00;;
45206;SDS011;30950;53.086;21.576;2023-07-13T08:59:25;4.13;;;2.45;;
45206;SDS011;30950;53.086;21.576;2023-07-13T09:07:22;5.43;;;3.10;;
45206;SDS011;30950;53.086;21.576;2023-07-13T09:09:58;4.43;;;2.90;;
45206;SDS011;30950;53.086;21.576;2023-07-13T09:12:45;4.72;;;2.97;;
45206;SDS011;30950;53.086;21.576;2023-07-13T09:15:30;5.25;;;3.10;;
45206;SDS011;30950;53.086;21.576;2023-07-13T09:18:44;5.28;;;3.20;;
45206;SDS011;30950;53.086;21.576;2023-07-13T09:20:57;5.40;;;2.70;;
45206;SDS011;30950;53.086;21.576;2023-07-13T09:23:30;4.90;;;2.92;;
45206;SDS011;30950;53.086;21.576;2023-07-13T09:28:34;4.60;;;2.90;;
45206;SDS011;30950;53.086;21.576;2023-07-13T09:31:10;5.40;;;3.22;;
45206;SDS011;30950;53.086;21.576;2023-07-13T09:33:42;4.28;;;2.97;;
45206;SDS011;30950;53.086;21.576;2023-07-13T09:36:17;5.35;;;3.40;;
45206;SDS011;30950;53.086;21.576;2023-07-13T09:38:48;5.47;;;3.05;;
45206;SDS011;30950;53.086;21.576;2023-07-13T09:41:37;3.88;;;2.92;;
45206;SDS011;30950;53.086;21.576;2023-07-13T09:44:13;5.10;;;2.97;;
45206;SDS011;30950;53.086;21.576;2023-07-13T09:46:46;6.28;;;3.10;;
45206;SDS011;30950;53.086;21.576;2023-07-13T09:49:22;6.07;;;2.80;;
45206;SDS011;30950;53.086;21.576;2023-07-13T09:51:58;5.38;;;3.00;;
45206;SDS011;30950;53.086;21.576;2023-07-13T09:54:28;5.10;;;2.55;;
45206;SDS011;30950;53.086;21.576;2023-07-13T09:56:57;4.88;;;2.97;;
45206;SDS011;30950;53.086;21.576;2023-07-13T09:59:29;5.70;;;3.15;;
45206;SDS011;30950;53.086;21.576;2023-07-13T10:01:59;6.22;;;3.08;;
45206;SDS011;30950;53.086;21.576;2023-07-13T10:04:31;5.60;;;2.40;;
45206;SDS011;30950;53.086;21.576;2023-07-13T10:07:04;5.63;;;2.63;;
45206;SDS011;30950;53.086;21.576;2023-07-13T10:09:55;4.78;;;2.65;;
45206;SDS011;30950;53.086;21.576;2023-07-13T10:12:30;4.97;;;2.70;;
45206;SDS011;30950;53.086;21.576;2023-07-13T10:15:03;3.97;;;2.30;;
45206;SDS011;30950;53.086;21.576;2023-07-13T10:20:18;3.55;;;2.33;;
45206;SDS011;30950;53.086;21.576;2023-07-13T10:22:52;6.70;;;3.90;;
45206;SDS011;30950;53.086;21.576;2023-07-13T10:25:33;3.50;;;2.35;;
45206;SDS011;30950;53.086;21.576;2023-07-13T10:28:24;4.03;;;2.63;;
45206;SDS011;30950;53.086;21.576;2023-07-13T10:31:01;5.45;;;2.70;;
45206;SDS011;30950;53.086;21.576;2023-07-13T10:33:32;4.72;;;2.63;;
45206;SDS011;30950;53.086;21.576;2023-07-13T10:36:03;5.00;;;2.35;;
45206;SDS011;30950;53.086;21.576;2023-07-13T10:38:43;4.68;;;2.63;;
45206;SDS011;30950;53.086;21.576;2023-07-13T10:41:17;4.20;;;2.33;;
45206;SDS011;30950;53.086;21.576;2023-07-13T10:43:49;4.65;;;2.40;;
45206;SDS011;30950;53.086;21.576;2023-07-13T10:46:22;7.28;;;2.80;;
45206;SDS011;30950;53.086;21.576;2023-07-13T10:49:04;3.30;;;2.22;;
45206;SDS011;30950;53.086;21.576;2023-07-13T10:51:33;4.25;;;2.30;;
45206;SDS011;30950;53.086;21.576;2023-07-13T10:54:10;3.13;;;2.20;;
45206;SDS011;30950;53.086;21.576;2023-07-13T10:57:06;4.82;;;2.30;;
45206;SDS011;30950;53.086;21.576;2023-07-13T10:59:35;3.10;;;2.15;;
45206;SDS011;30950;53.086;21.576;2023-07-13T11:04:47;4.50;;;2.05;;
45206;SDS011;30950;53.086;21.576;2023-07-13T11:07:27;4.38;;;2.20;;
45206;SDS011;30950;53.086;21.576;2023-07-13T11:09:57;5.82;;;2.50;;
45206;SDS011;30950;53.086;21.576;2023-07-13T11:12:27;4.32;;;2.20;;
45206;SDS011;30950;53.086;21.576;2023-07-13T11:15:15;5.63;;;2.47;;
45206;SDS011;30950;53.086;21.576;2023-07-13T11:17:56;5.82;;;2.55;;
45206;SDS011;30950;53.086;21.576;2023-07-13T11:20:36;3.15;;;2.30;;
45206;SDS011;30950;53.086;21.576;2023-07-13T11:23:08;4.72;;;2.30;;
45206;SDS011;30950;53.086;21.576;2023-07-13T11:25:38;4.78;;;2.50;;
45206;SDS011;30950;53.086;21.576;2023-07-13T11:30:43;3.80;;;2.42;;
45206;SDS011;30950;53.086;21.576;2023-07-13T11:36:15;3.40;;;2.58;;
45206;SDS011;30950;53.086;21.576;2023-07-13T11:38:45;5.13;;;2.30;;
45206;SDS011;30950;53.086;21.576;2023-07-13T11:41:21;4.63;;;2.53;;
45206;SDS011;30950;53.086;21.576;2023-07-13T11:44:11;4.30;;;2.72;;
45206;SDS011;30950;53.086;21.576;2023-07-13T11:46:50;5.68;;;2.47;;
45206;SDS011;30950;53.086;21.576;2023-07-13T11:49:23;4.25;;;3.17;;
45206;SDS011;30950;53.086;21.576;2023-07-13T11:51:51;4.15;;;2.40;;
45206;SDS011;30950;53.086;21.576;2023-07-13T11:54:43;5.18;;;2.78;;
45206;SDS011;30950;53.086;21.576;2023-07-13T11:57:28;4.07;;;2.50;;
45206;SDS011;30950;53.086;21.576;2023-07-13T12:00:03;4.95;;;2.83;;
45206;SDS011;30950;53.086;21.576;2023-07-13T12:02:40;3.95;;;2.50;;
45206;SDS011;30950;53.086;21.576;2023-07-13T12:05:11;5.35;;;3.05;;
45206;SDS011;30950;53.086;21.576;2023-07-13T12:07:41;3.67;;;2.42;;
45206;SDS011;30950;53.086;21.576;2023-07-13T12:12:36;4.00;;;2.35;;
45206;SDS011;30950;53.086;21.576;2023-07-13T12:15:07;4.07;;;2.55;;
45206;SDS011;30950;53.086;21.576;2023-07-13T12:17:35;4.68;;;2.70;;
45206;SDS011;30950;53.086;21.576;2023-07-13T12:20:04;3.63;;;2.70;;
45206;SDS011;30950;53.086;21.576;2023-07-13T12:22:51;3.65;;;2.50;;
45206;SDS011;30950;53.086;21.576;2023-07-13T12:25:19;3.88;;;2.65;;
45206;SDS011;30950;53.086;21.576;2023-07-13T12:27:48;3.25;;;2.30;;
45206;SDS011;30950;53.086;21.576;2023-07-13T12:30:23;4.53;;;2.47;;
45206;SDS011;30950;53.086;21.576;2023-07-13T12:33:23;8.00;;;2.80;;
45206;SDS011;30950;53.086;21.576;2023-07-13T12:35:51;3.50;;;2.40;;
45206;SDS011;30950;53.086;21.576;2023-07-13T12:38:19;5.60;;;2.40;;
45206;SDS011;30950;53.086;21.576;2023-07-13T12:40:49;3.60;;;2.53;;
45206;SDS011;30950;53.086;21.576;2023-07-13T12:43:19;4.32;;;2.47;;
45206;SDS011;30950;53.086;21.576;2023-07-13T12:45:55;4.47;;;2.25;;
45206;SDS011;30950;53.086;21.576;2023-07-13T12:48:37;3.90;;;2.53;;
45206;SDS011;30950;53.086;21.576;2023-07-13T12:51:16;5.70;;;2.58;;
45206;SDS011;30950;53.086;21.576;2023-07-13T12:54:29;3.85;;;2.60;;
45206;SDS011;30950;53.086;21.576;2023-07-13T12:56:43;3.20;;;2.20;;
45206;SDS011;30950;53.086;21.576;2023-07-13T12:59:16;6.63;;;2.53;;
45206;SDS011;30950;53.086;21.576;2023-07-13T13:01:46;4.85;;;2.70;;
45206;SDS011;30950;53.086;21.576;2023-07-13T13:04:16;4.57;;;2.70;;
45206;SDS011;30950;53.086;21.576;2023-07-13T13:06:48;3.67;;;2.50;;
45206;SDS011;30950;53.086;21.576;2023-07-13T13:09:27;3.78;;;2.67;;
45206;SDS011;30950;53.086;21.576;2023-07-13T13:11:55;4.68;;;2.75;;
45206;SDS011;30950;53.086;21.576;2023-07-13T13:14:22;3.85;;;2.88;;
45206;SDS011;30950;53.086;21.576;2023-07-13T13:16:50;3.40;;;2.20;;
45206;SDS011;30950;53.086;21.576;2023-07-13T13:21:53;5.18;;;2.33;;
45206;SDS011;30950;53.086;21.576;2023-07-13T13:24:24;3.28;;;2.40;;
45206;SDS011;30950;53.086;21.576;2023-07-13T13:26:53;3.92;;;2.35;;
45206;SDS011;30950;53.086;21.576;2023-07-13T13:29:23;4.65;;;2.78;;
45206;SDS011;30950;53.086;21.576;2023-07-13T13:31:52;5.05;;;2.53;;
45206;SDS011;30950;53.086;21.576;2023-07-13T13:34:23;3.13;;;2.13;;
45206;SDS011;30950;53.086;21.576;2023-07-13T13:36:51;6.50;;;2.72;;
45206;SDS011;30950;53.086;21.576;2023-07-13T13:39:33;4.20;;;2.63;;
45206;SDS011;30950;53.086;21.576;2023-07-13T13:42:01;5.38;;;2.95;;
45206;SDS011;30950;53.086;21.576;2023-07-13T13:44:29;5.15;;;2.63;;
45206;SDS011;30950;53.086;21.576;2023-07-13T13:46:57;5.65;;;2.83;;
45206;SDS011;30950;53.086;21.576;2023-07-13T13:49:25;5.78;;;2.55;;
45206;SDS011;30950;53.086;21.576;2023-07-13T13:51:54;4.28;;;2.78;;
45206;SDS011;30950;53.086;21.576;2023-07-13T13:54:22;3.95;;;2.80;;
45206;SDS011;30950;53.086;21.576;2023-07-13T13:56:52;5.32;;;2.67;;
45206;SDS011;30950;53.086;21.576;2023-07-13T13:59:19;3.63;;;2.75;;
45206;SDS011;30950;53.086;21.576;2023-07-13T14:01:47;3.90;;;2.67;;
45206;SDS011;30950;53.086;21.576;2023-07-13T14:04:17;4.07;;;2.72;;
45206;SDS011;30950;53.086;21.576;2023-07-13T14:06:46;7.28;;;2.90;;
45206;SDS011;30950;53.086;21.576;2023-07-13T14:09:15;4.70;;;2.72;;
45206;SDS011;30950;53.086;21.576;2023-07-13T14:11:46;4.15;;;2.70;;
45206;SDS011;30950;53.086;21.576;2023-07-13T14:14:23;5.72;;;2.78;;
45206;SDS011;30950;53.086;21.576;2023-07-13T14:16:52;7.00;;;3.03;;
45206;SDS011;30950;53.086;21.576;2023-07-13T14:19:23;6.78;;;2.80;;
45206;SDS011;30950;53.086;21.576;2023-07-13T14:21:51;4.18;;;2.95;;
45206;SDS011;30950;53.086;21.576;2023-07-13T14:24:20;4.53;;;3.00;;
45206;SDS011;30950;53.086;21.576;2023-07-13T14:26:48;4.80;;;2.90;;
45206;SDS011;30950;53.086;21.576;2023-07-13T14:29:16;4.15;;;2.63;;
45206;SDS011;30950;53.086;21.576;2023-07-13T14:31:50;4.25;;;2.95;;
45206;SDS011;30950;53.086;21.576;2023-07-13T14:34:18;4.22;;;2.80;;
45206;SDS011;30950;53.086;21.576;2023-07-13T14:36:47;5.35;;;3.10;;
45206;SDS011;30950;53.086;21.576;2023-07-13T14:41:45;6.28;;;3.05;;
45206;SDS011;30950;53.086;21.576;2023-07-13T14:44:13;5.80;;;3.30;;
45206;SDS011;30950;53.086;21.576;2023-07-13T14:46:42;6.15;;;3.55;;
45206;SDS011;30950;53.086;21.576;2023-07-13T14:54:41;8.32;;;4.00;;
45206;SDS011;30950;53.086;21.576;2023-07-13T14:57:11;9.65;;;4.43;;
45206;SDS011;30950;53.086;21.576;2023-07-13T14:59:42;9.65;;;4.32;;
45206;SDS011;30950;53.086;21.576;2023-07-13T15:04:49;6.93;;;4.47;;
45206;SDS011;30950;53.086;21.576;2023-07-13T15:07:16;5.60;;;4.15;;
45206;SDS011;30950;53.086;21.576;2023-07-13T15:09:45;12.23;;;5.30;;
45206;SDS011;30950;53.086;21.576;2023-07-13T15:12:13;6.45;;;4.82;;
45206;SDS011;30950;53.086;21.576;2023-07-13T15:14:41;6.72;;;5.00;;
45206;SDS011;30950;53.086;21.576;2023-07-13T15:17:43;9.60;;;6.07;;
45206;SDS011;30950;53.086;21.576;2023-07-13T15:20:29;8.07;;;5.97;;